sensor_id;sensor_type;location;lat;lon;timestamp;P1;durP1;ratioP1;P2;durP2;ratioP2
22382;SDS011;11359;45.802;13.530;2022-07-22T00:02:05;10.60;;;9.43;;
22382;SDS011;11359;45.802;13.530;2022-07-22T00:04:31;9.85;;;8.85;;
22382;SDS011;11359;45.802;13.530;2022-07-22T00:06:57;9.82;;;8.82;;
22382;SDS011;11359;45.802;13.530;2022-07-22T00:09:22;9.55;;;8.55;;
22382;SDS011;11359;45.802;13.530;2022-07-22T00:11:48;9.10;;;8.05;;
22382;SDS011;11359;45.802;13.530;2022-07-22T00:14:14;8.25;;;7.45;;
22382;SDS011;11359;45.802;13.530;2022-07-22T00:16:40;8.40;;;7.50;;
22382;SDS011;11359;45.802;13.530;2022-07-22T00:19:06;7.95;;;6.85;;
22382;SDS011;11359;45.802;13.530;2022-07-22T00:21:32;7.03;;;6.32;;
22382;SDS011;11359;45.802;13.530;2022-07-22T00:23:58;8.82;;;7.00;;
22382;SDS011;11359;45.802;13.530;2022-07-22T00:26:24;8.30;;;7.40;;
22382;SDS011;11359;45.802;13.530;2022-07-22T00:28:50;6.93;;;6.05;;
22382;SDS011;11359;45.802;13.530;2022-07-22T00:31:15;6.82;;;5.97;;
22382;SDS011;11359;45.802;13.530;2022-07-22T00:33:41;6.13;;;5.53;;
22382;SDS011;11359;45.802;13.530;2022-07-22T00:36:07;6.65;;;5.78;;
22382;SDS011;11359;45.802;13.530;2022-07-22T00:38:33;6.63;;;5.93;;
22382;SDS011;11359;45.802;13.530;2022-07-22T00:40:59;5.97;;;5.35;;
22382;SDS011;11359;45.802;13.530;2022-07-22T00:43:25;6.03;;;5.43;;
22382;SDS011;11359;45.802;13.530;2022-07-22T00:45:51;5.70;;;5.10;;
22382;SDS011;11359;45.802;13.530;2022-07-22T00:48:16;5.60;;;5.00;;
22382;SDS011;11359;45.802;13.530;2022-07-22T00:50:42;4.95;;;4.45;;
22382;SDS011;11359;45.802;13.530;2022-07-22T00:53:08;5.25;;;4.63;;
22382;SDS011;11359;45.802;13.530;2022-07-22T00:55:34;6.53;;;4.80;;
22382;SDS011;11359;45.802;13.530;2022-07-22T00:58:02;6.47;;;5.25;;
22382;SDS011;11359;45.802;13.530;2022-07-22T01:00:28;4.72;;;4.22;;
22382;SDS011;11359;45.802;13.530;2022-07-22T01:02:54;5.78;;;5.18;;
22382;SDS011;11359;45.802;13.530;2022-07-22T01:05:19;4.65;;;4.18;;
22382;SDS011;11359;45.802;13.530;2022-07-22T01:07:45;5.32;;;4.45;;
22382;SDS011;11359;45.802;13.530;2022-07-22T01:10:12;5.95;;;4.82;;
22382;SDS011;11359;45.802;13.530;2022-07-22T01:12:39;6.18;;;4.93;;
22382;SDS011;11359;45.802;13.530;2022-07-22T01:15:05;5.30;;;4.80;;
22382;SDS011;11359;45.802;13.530;2022-07-22T01:17:31;6.03;;;4.82;;
22382;SDS011;11359;45.802;13.530;2022-07-22T01:20:00;6.28;;;5.20;;
22382;SDS011;11359;45.802;13.530;2022-07-22T01:22:28;5.65;;;4.80;;
22382;SDS011;11359;45.802;13.530;2022-07-22T01:24:55;4.93;;;4.40;;
22382;SDS011;11359;45.802;13.530;2022-07-22T01:27:20;4.95;;;4.45;;
22382;SDS011;11359;45.802;13.530;2022-07-22T01:29:46;5.05;;;4.10;;
22382;SDS011;11359;45.802;13.530;2022-07-22T01:32:12;4.55;;;3.97;;
22382;SDS011;11359;45.802;13.530;2022-07-22T01:34:38;4.70;;;4.15;;
22382;SDS011;11359;45.802;13.530;2022-07-22T01:37:04;4.35;;;3.63;;
22382;SDS011;11359;45.802;13.530;2022-07-22T01:39:30;4.30;;;3.90;;
22382;SDS011;11359;45.802;13.530;2022-07-22T01:41:56;3.92;;;3.45;;
22382;SDS011;11359;45.802;13.530;2022-07-22T01:44:21;3.97;;;3.58;;
22382;SDS011;11359;45.802;13.530;2022-07-22T01:46:47;4.07;;;3.58;;
22382;SDS011;11359;45.802;13.530;2022-07-22T01:49:14;4.10;;;3.70;;
22382;SDS011;11359;45.802;13.530;2022-07-22T01:51:41;3.58;;;3.22;;
22382;SDS011;11359;45.802;13.530;2022-07-22T01:54:07;3.40;;;3.10;;
22382;SDS011;11359;45.802;13.530;2022-07-22T01:56:33;3.60;;;3.30;;
22382;SDS011;11359;45.802;13.530;2022-07-22T01:58:58;3.58;;;3.10;;
22382;SDS011;11359;45.802;13.530;2022-07-22T02:01:24;2.97;;;2.60;;
22382;SDS011;11359;45.802;13.530;2022-07-22T02:03:50;3.28;;;2.85;;
22382;SDS011;11359;45.802;13.530;2022-07-22T02:06:16;3.10;;;2.80;;
22382;SDS011;11359;45.802;13.530;2022-07-22T02:08:41;3.42;;;2.80;;
22382;SDS011;11359;45.802;13.530;2022-07-22T02:11:07;2.72;;;2.40;;
22382;SDS011;11359;45.802;13.530;2022-07-22T02:13:33;3.40;;;2.83;;
22382;SDS011;11359;45.802;13.530;2022-07-22T02:15:59;3.92;;;2.78;;
22382;SDS011;11359;45.802;13.530;2022-07-22T02:18:24;3.83;;;2.92;;
22382;SDS011;11359;45.802;13.530;2022-07-22T02:20:50;3.13;;;2.72;;
22382;SDS011;11359;45.802;13.530;2022-07-22T02:23:16;3.15;;;2.80;;
22382;SDS011;11359;45.802;13.530;2022-07-22T02:25:42;3.83;;;3.03;;
22382;SDS011;11359;45.802;13.530;2022-07-22T02:28:09;3.38;;;2.72;;
22382;SDS011;11359;45.802;13.530;2022-07-22T02:30:34;3.28;;;2.90;;
22382;SDS011;11359;45.802;13.530;2022-07-22T02:33:01;2.67;;;2.35;;
22382;SDS011;11359;45.802;13.530;2022-07-22T02:35:27;3.75;;;2.70;;
22382;SDS011;11359;45.802;13.530;2022-07-22T02:37:53;3.28;;;2.90;;
22382;SDS011;11359;45.802;13.530;2022-07-22T02:40:19;2.80;;;2.45;;
22382;SDS011;11359;45.802;13.530;2022-07-22T02:42:45;2.60;;;2.25;;
22382;SDS011;11359;45.802;13.530;2022-07-22T02:45:10;2.13;;;1.92;;
22382;SDS011;11359;45.802;13.530;2022-07-22T02:47:49;2.80;;;2.50;;
22382;SDS011;11359;45.802;13.530;2022-07-22T02:50:16;2.75;;;2.35;;
22382;SDS011;11359;45.802;13.530;2022-07-22T02:52:42;1.90;;;1.70;;
22382;SDS011;11359;45.802;13.530;2022-07-22T02:55:08;3.28;;;2.40;;
22382;SDS011;11359;45.802;13.530;2022-07-22T02:57:34;2.20;;;1.90;;
22382;SDS011;11359;45.802;13.530;2022-07-22T03:00:00;2.47;;;2.10;;
22382;SDS011;11359;45.802;13.530;2022-07-22T03:02:26;2.20;;;2.00;;
22382;SDS011;11359;45.802;13.530;2022-07-22T03:04:52;2.28;;;2.00;;
22382;SDS011;11359;45.802;13.530;2022-07-22T03:07:17;1.77;;;1.60;;
22382;SDS011;11359;45.802;13.530;2022-07-22T03:09:43;2.17;;;1.90;;
22382;SDS011;11359;45.802;13.530;2022-07-22T03:12:10;2.13;;;1.90;;
22382;SDS011;11359;45.802;13.530;2022-07-22T03:14:36;1.60;;;1.50;;
22382;SDS011;11359;45.802;13.530;2022-07-22T03:17:01;1.73;;;1.50;;
22382;SDS011;11359;45.802;13.530;2022-07-22T03:19:27;2.00;;;1.80;;
22382;SDS011;11359;45.802;13.530;2022-07-22T03:21:53;3.28;;;2.33;;
22382;SDS011;11359;45.802;13.530;2022-07-22T03:24:19;1.92;;;1.70;;
22382;SDS011;11359;45.802;13.530;2022-07-22T03:26:44;1.70;;;1.60;;
22382;SDS011;11359;45.802;13.530;2022-07-22T03:29:10;1.80;;;1.60;;
22382;SDS011;11359;45.802;13.530;2022-07-22T03:31:36;2.28;;;1.83;;
22382;SDS011;11359;45.802;13.530;2022-07-22T03:34:01;2.58;;;2.20;;
22382;SDS011;11359;45.802;13.530;2022-07-22T03:36:27;2.10;;;1.90;;
22382;SDS011;11359;45.802;13.530;2022-07-22T03:38:56;2.17;;;1.75;;
22382;SDS011;11359;45.802;13.530;2022-07-22T03:41:22;2.10;;;1.90;;
22382;SDS011;11359;45.802;13.530;2022-07-22T03:43:48;3.00;;;2.10;;
22382;SDS011;11359;45.802;13.530;2022-07-22T03:46:14;2.70;;;2.10;;
22382;SDS011;11359;45.802;13.530;2022-07-22T03:48:40;2.53;;;2.30;;
22382;SDS011;11359;45.802;13.530;2022-07-22T03:51:05;2.90;;;2.60;;
22382;SDS011;11359;45.802;13.530;2022-07-22T03:53:31;2.78;;;2.47;;
22382;SDS011;11359;45.802;13.530;2022-07-22T03:55:58;2.10;;;1.90;;
22382;SDS011;11359;45.802;13.530;2022-07-22T03:58:24;2.55;;;2.30;;
22382;SDS011;11359;45.802;13.530;2022-07-22T04:00:51;2.47;;;2.28;;
22382;SDS011;11359;45.802;13.530;2022-07-22T04:03:17;2.70;;;2.50;;
22382;SDS011;11359;45.802;13.530;2022-07-22T04:05:43;2.45;;;2.25;;
22382;SDS011;11359;45.802;13.530;2022-07-22T04:08:10;2.90;;;2.60;;
22382;SDS011;11359;45.802;13.530;2022-07-22T04:10:37;3.17;;;2.88;;
22382;SDS011;11359;45.802;13.530;2022-07-22T04:13:03;3.17;;;2.88;;
22382;SDS011;11359;45.802;13.530;2022-07-22T04:15:28;2.90;;;2.60;;
22382;SDS011;11359;45.802;13.530;2022-07-22T04:17:54;4.20;;;3.60;;
22382;SDS011;11359;45.802;13.530;2022-07-22T04:20:20;5.40;;;4.70;;
22382;SDS011;11359;45.802;13.530;2022-07-22T04:22:46;4.72;;;4.22;;
22382;SDS011;11359;45.802;13.530;2022-07-22T04:25:12;4.72;;;4.32;;
22382;SDS011;11359;45.802;13.530;2022-07-22T04:27:37;4.25;;;3.85;;
22382;SDS011;11359;45.802;13.530;2022-07-22T04:30:03;6.70;;;6.05;;
22382;SDS011;11359;45.802;13.530;2022-07-22T04:32:29;6.93;;;6.22;;
22382;SDS011;11359;45.802;13.530;2022-07-22T04:34:55;6.35;;;5.47;;
22382;SDS011;11359;45.802;13.530;2022-07-22T04:37:21;6.90;;;6.03;;
22382;SDS011;11359;45.802;13.530;2022-07-22T04:39:47;7.00;;;6.30;;
22382;SDS011;11359;45.802;13.530;2022-07-22T04:42:12;9.52;;;8.52;;
22382;SDS011;11359;45.802;13.530;2022-07-22T04:44:38;10.10;;;8.98;;
22382;SDS011;11359;45.802;13.530;2022-07-22T04:47:04;9.73;;;8.45;;
22382;SDS011;11359;45.802;13.530;2022-07-22T04:49:29;9.40;;;8.43;;
22382;SDS011;11359;45.802;13.530;2022-07-22T04:51:55;9.88;;;8.88;;
22382;SDS011;11359;45.802;13.530;2022-07-22T04:54:21;10.15;;;9.10;;
22382;SDS011;11359;45.802;13.530;2022-07-22T04:56:46;9.25;;;8.05;;
22382;SDS011;11359;45.802;13.530;2022-07-22T04:59:12;9.60;;;8.60;;
22382;SDS011;11359;45.802;13.530;2022-07-22T05:01:38;8.68;;;7.78;;
22382;SDS011;11359;45.802;13.530;2022-07-22T05:04:03;7.65;;;6.88;;
22382;SDS011;11359;45.802;13.530;2022-07-22T05:06:29;10.93;;;9.15;;
22382;SDS011;11359;45.802;13.530;2022-07-22T05:08:55;10.32;;;9.23;;
22382;SDS011;11359;45.802;13.530;2022-07-22T05:11:21;10.85;;;8.43;;
22382;SDS011;11359;45.802;13.530;2022-07-22T05:13:46;11.40;;;9.45;;
22382;SDS011;11359;45.802;13.530;2022-07-22T05:16:13;11.18;;;9.88;;
22382;SDS011;11359;45.802;13.530;2022-07-22T05:18:39;12.70;;;11.02;;
22382;SDS011;11359;45.802;13.530;2022-07-22T05:21:04;14.07;;;11.60;;
22382;SDS011;11359;45.802;13.530;2022-07-22T05:23:30;12.48;;;10.65;;
22382;SDS011;11359;45.802;13.530;2022-07-22T05:25:57;11.40;;;9.75;;
22382;SDS011;11359;45.802;13.530;2022-07-22T05:28:22;11.75;;;9.90;;
22382;SDS011;11359;45.802;13.530;2022-07-22T05:30:49;10.20;;;8.38;;
22382;SDS011;11359;45.802;13.530;2022-07-22T05:33:14;8.93;;;7.80;;
22382;SDS011;11359;45.802;13.530;2022-07-22T05:35:40;7.53;;;6.70;;
22382;SDS011;11359;45.802;13.530;2022-07-22T05:38:06;7.15;;;6.00;;
22382;SDS011;11359;45.802;13.530;2022-07-22T05:40:32;7.40;;;6.15;;
22382;SDS011;11359;45.802;13.530;2022-07-22T05:42:58;6.95;;;5.97;;
22382;SDS011;11359;45.802;13.530;2022-07-22T05:45:24;5.30;;;4.80;;
22382;SDS011;11359;45.802;13.530;2022-07-22T05:47:49;5.13;;;4.63;;
22382;SDS011;11359;45.802;13.530;2022-07-22T05:50:15;5.40;;;4.82;;
22382;SDS011;11359;45.802;13.530;2022-07-22T05:52:41;5.63;;;5.03;;
22382;SDS011;11359;45.802;13.530;2022-07-22T05:55:07;5.05;;;4.55;;
22382;SDS011;11359;45.802;13.530;2022-07-22T05:57:33;4.60;;;4.10;;
22382;SDS011;11359;45.802;13.530;2022-07-22T05:59:59;4.22;;;3.80;;
22382;SDS011;11359;45.802;13.530;2022-07-22T06:02:25;4.20;;;3.80;;
22382;SDS011;11359;45.802;13.530;2022-07-22T06:04:50;3.80;;;3.30;;
22382;SDS011;11359;45.802;13.530;2022-07-22T06:07:16;3.55;;;3.25;;
22382;SDS011;11359;45.802;13.530;2022-07-22T06:09:42;3.20;;;2.90;;
22382;SDS011;11359;45.802;13.530;2022-07-22T06:12:08;2.88;;;2.50;;
22382;SDS011;11359;45.802;13.530;2022-07-22T06:14:34;2.92;;;2.63;;
22382;SDS011;11359;45.802;13.530;2022-07-22T06:17:01;2.75;;;2.50;;
22382;SDS011;11359;45.802;13.530;2022-07-22T06:19:27;2.67;;;2.33;;
22382;SDS011;11359;45.802;13.530;2022-07-22T06:21:54;2.72;;;2.42;;
22382;SDS011;11359;45.802;13.530;2022-07-22T06:24:20;2.35;;;2.10;;
22382;SDS011;11359;45.802;13.530;2022-07-22T06:26:46;2.58;;;2.38;;
22382;SDS011;11359;45.802;13.530;2022-07-22T06:29:12;8.00;;;6.07;;
22382;SDS011;11359;45.802;13.530;2022-07-22T06:31:38;5.95;;;5.40;;
22382;SDS011;11359;45.802;13.530;2022-07-22T06:34:04;8.85;;;6.80;;
22382;SDS011;11359;45.802;13.530;2022-07-22T06:36:30;8.82;;;7.93;;
22382;SDS011;11359;45.802;13.530;2022-07-22T06:38:59;8.00;;;7.20;;
22382;SDS011;11359;45.802;13.530;2022-07-22T06:41:25;9.02;;;7.53;;
22382;SDS011;11359;45.802;13.530;2022-07-22T06:43:51;11.38;;;10.05;;
22382;SDS011;11359;45.802;13.530;2022-07-22T06:46:17;12.20;;;10.27;;
22382;SDS011;11359;45.802;13.530;2022-07-22T06:48:42;10.38;;;9.35;;
22382;SDS011;11359;45.802;13.530;2022-07-22T06:51:08;9.80;;;8.80;;
22382;SDS011;11359;45.802;13.530;2022-07-22T06:53:34;9.38;;;8.38;;
22382;SDS011;11359;45.802;13.530;2022-07-22T06:56:00;10.90;;;9.77;;
22382;SDS011;11359;45.802;13.530;2022-07-22T06:58:26;14.45;;;12.60;;
22382;SDS011;11359;45.802;13.530;2022-07-22T07:00:51;21.45;;;17.48;;
22382;SDS011;11359;45.802;13.530;2022-07-22T07:03:17;22.17;;;19.83;;
22382;SDS011;11359;45.802;13.530;2022-07-22T07:05:43;19.00;;;17.00;;
22382;SDS011;11359;45.802;13.530;2022-07-22T07:08:09;18.33;;;16.40;;
22382;SDS011;11359;45.802;13.530;2022-07-22T07:10:34;16.00;;;14.30;;
22382;SDS011;11359;45.802;13.530;2022-07-22T07:13:00;14.85;;;13.45;;
22382;SDS011;11359;45.802;13.530;2022-07-22T07:15:26;21.38;;;18.05;;
22382;SDS011;11359;45.802;13.530;2022-07-22T07:17:52;20.27;;;18.15;;
22382;SDS011;11359;45.802;13.530;2022-07-22T07:20:19;17.67;;;15.93;;
22382;SDS011;11359;45.802;13.530;2022-07-22T07:22:45;15.27;;;13.80;;
22382;SDS011;11359;45.802;13.530;2022-07-22T07:25:11;13.75;;;12.43;;
22382;SDS011;11359;45.802;13.530;2022-07-22T07:27:37;13.07;;;11.77;;
22382;SDS011;11359;45.802;13.530;2022-07-22T07:30:03;12.85;;;11.55;;
22382;SDS011;11359;45.802;13.530;2022-07-22T07:32:30;12.77;;;11.48;;
22382;SDS011;11359;45.802;13.530;2022-07-22T07:34:56;11.60;;;10.50;;
22382;SDS011;11359;45.802;13.530;2022-07-22T07:37:22;10.50;;;9.35;;
22382;SDS011;11359;45.802;13.530;2022-07-22T07:39:47;9.25;;;8.35;;
22382;SDS011;11359;45.802;13.530;2022-07-22T07:42:13;7.93;;;7.22;;
22382;SDS011;11359;45.802;13.530;2022-07-22T07:44:39;7.07;;;6.38;;
22382;SDS011;11359;45.802;13.530;2022-07-22T07:47:05;6.50;;;5.90;;
22382;SDS011;11359;45.802;13.530;2022-07-22T07:49:31;5.80;;;5.30;;
22382;SDS011;11359;45.802;13.530;2022-07-22T07:51:56;5.53;;;4.30;;
22382;SDS011;11359;45.802;13.530;2022-07-22T07:54:22;4.18;;;3.78;;
22382;SDS011;11359;45.802;13.530;2022-07-22T07:56:48;3.80;;;3.50;;
22382;SDS011;11359;45.802;13.530;2022-07-22T07:59:14;3.10;;;2.80;;
22382;SDS011;11359;45.802;13.530;2022-07-22T08:01:42;2.63;;;2.40;;
22382;SDS011;11359;45.802;13.530;2022-07-22T08:04:08;2.70;;;2.50;;
22382;SDS011;11359;45.802;13.530;2022-07-22T08:06:33;2.45;;;2.25;;
22382;SDS011;11359;45.802;13.530;2022-07-22T08:08:59;2.30;;;2.10;;
22382;SDS011;11359;45.802;13.530;2022-07-22T08:11:25;2.83;;;2.40;;
22382;SDS011;11359;45.802;13.530;2022-07-22T08:13:50;2.20;;;2.00;;
22382;SDS011;11359;45.802;13.530;2022-07-22T08:16:16;1.70;;;1.60;;
22382;SDS011;11359;45.802;13.530;2022-07-22T08:18:42;2.15;;;1.95;;
22382;SDS011;11359;45.802;13.530;2022-07-22T08:21:08;2.40;;;2.08;;
22382;SDS011;11359;45.802;13.530;2022-07-22T08:23:33;1.60;;;1.50;;
22382;SDS011;11359;45.802;13.530;2022-07-22T08:25:59;1.75;;;1.38;;
22382;SDS011;11359;45.802;13.530;2022-07-22T08:28:25;1.15;;;1.05;;
22382;SDS011;11359;45.802;13.530;2022-07-22T08:30:51;1.58;;;0.95;;
22382;SDS011;11359;45.802;13.530;2022-07-22T08:33:17;0.80;;;0.80;;
22382;SDS011;11359;45.802;13.530;2022-07-22T08:35:44;1.00;;;0.90;;
22382;SDS011;11359;45.802;13.530;2022-07-22T08:38:09;0.77;;;0.77;;
22382;SDS011;11359;45.802;13.530;2022-07-22T08:40:35;0.50;;;0.50;;
22382;SDS011;11359;45.802;13.530;2022-07-22T08:43:01;0.60;;;0.60;;
22382;SDS011;11359;45.802;13.530;2022-07-22T08:45:31;0.50;;;0.50;;
22382;SDS011;11359;45.802;13.530;2022-07-22T08:47:57;0.50;;;0.50;;
22382;SDS011;11359;45.802;13.530;2022-07-22T08:50:28;0.57;;;0.50;;
22382;SDS011;11359;45.802;13.530;2022-07-22T08:52:55;0.60;;;0.60;;
22382;SDS011;11359;45.802;13.530;2022-07-22T08:55:21;0.80;;;0.50;;
22382;SDS011;11359;45.802;13.530;2022-07-22T08:57:49;0.55;;;0.55;;
22382;SDS011;11359;45.802;13.530;2022-07-22T09:00:17;0.63;;;0.60;;
22382;SDS011;11359;45.802;13.530;2022-07-22T09:02:44;0.80;;;0.77;;
22382;SDS011;11359;45.802;13.530;2022-07-22T09:05:11;0.73;;;0.73;;
22382;SDS011;11359;45.802;13.530;2022-07-22T09:07:40;0.88;;;0.60;;
22382;SDS011;11359;45.802;13.530;2022-07-22T09:10:11;0.80;;;0.70;;
22382;SDS011;11359;45.802;13.530;2022-07-22T09:13:01;0.77;;;0.77;;
22382;SDS011;11359;45.802;13.530;2022-07-22T09:15:27;0.80;;;0.65;;
22382;SDS011;11359;45.802;13.530;2022-07-22T09:17:54;2.60;;;2.40;;
22382;SDS011;11359;45.802;13.530;2022-07-22T09:20:21;2.50;;;2.30;;
22382;SDS011;11359;45.802;13.530;2022-07-22T09:22:47;1.90;;;1.80;;
22382;SDS011;11359;45.802;13.530;2022-07-22T09:25:27;2.22;;;1.98;;
22382;SDS011;11359;45.802;13.530;2022-07-22T09:27:56;2.42;;;2.22;;
22382;SDS011;11359;45.802;13.530;2022-07-22T09:30:35;2.10;;;1.90;;
22382;SDS011;11359;45.802;13.530;2022-07-22T09:33:03;2.80;;;2.22;;
22382;SDS011;11359;45.802;13.530;2022-07-22T09:35:29;2.63;;;2.28;;
22382;SDS011;11359;45.802;13.530;2022-07-22T09:37:57;2.58;;;2.38;;
22382;SDS011;11359;45.802;13.530;2022-07-22T09:40:35;2.90;;;2.60;;
22382;SDS011;11359;45.802;13.530;2022-07-22T09:43:03;3.00;;;2.70;;
22382;SDS011;11359;45.802;13.530;2022-07-22T09:45:31;3.13;;;2.83;;
22382;SDS011;11359;45.802;13.530;2022-07-22T09:47:59;2.90;;;2.70;;
22382;SDS011;11359;45.802;13.530;2022-07-22T09:50:27;3.92;;;3.60;;
22382;SDS011;11359;45.802;13.530;2022-07-22T09:52:54;3.63;;;3.33;;
22382;SDS011;11359;45.802;13.530;2022-07-22T09:55:22;4.22;;;3.83;;
22382;SDS011;11359;45.802;13.530;2022-07-22T09:57:49;4.25;;;3.85;;
22382;SDS011;11359;45.802;13.530;2022-07-22T10:00:18;4.47;;;4.07;;
22382;SDS011;11359;45.802;13.530;2022-07-22T10:05:18;4.85;;;4.45;;
22382;SDS011;11359;45.802;13.530;2022-07-22T10:07:46;6.22;;;5.70;;
22382;SDS011;11359;45.802;13.530;2022-07-22T10:10:13;6.10;;;5.60;;
22382;SDS011;11359;45.802;13.530;2022-07-22T10:12:41;5.25;;;4.75;;
22382;SDS011;11359;45.802;13.530;2022-07-22T10:15:08;4.55;;;4.15;;
22382;SDS011;11359;45.802;13.530;2022-07-22T10:17:38;4.70;;;4.30;;
22382;SDS011;11359;45.802;13.530;2022-07-22T10:20:07;6.07;;;5.00;;
22382;SDS011;11359;45.802;13.530;2022-07-22T10:25:04;5.20;;;4.70;;
22382;SDS011;11359;45.802;13.530;2022-07-22T10:27:43;6.07;;;5.50;;
22382;SDS011;11359;45.802;13.530;2022-07-22T10:30:33;4.63;;;4.22;;
22382;SDS011;11359;45.802;13.530;2022-07-22T10:35:36;4.55;;;4.15;;
22382;SDS011;11359;45.802;13.530;2022-07-22T10:38:08;4.90;;;4.50;;
22382;SDS011;11359;45.802;13.530;2022-07-22T10:40:52;4.63;;;4.22;;
22382;SDS011;11359;45.802;13.530;2022-07-22T10:43:21;4.53;;;3.92;;
22382;SDS011;11359;45.802;13.530;2022-07-22T10:45:50;4.82;;;4.43;;
22382;SDS011;11359;45.802;13.530;2022-07-22T10:48:18;5.65;;;4.20;;
22382;SDS011;11359;45.802;13.530;2022-07-22T10:51:08;5.22;;;4.80;;
22382;SDS011;11359;45.802;13.530;2022-07-22T10:56:06;4.10;;;3.70;;
22382;SDS011;11359;45.802;13.530;2022-07-22T11:01:08;3.50;;;3.20;;
22382;SDS011;11359;45.802;13.530;2022-07-22T11:03:36;3.50;;;3.20;;
22382;SDS011;11359;45.802;13.530;2022-07-22T11:08:40;3.25;;;2.95;;
22382;SDS011;11359;45.802;13.530;2022-07-22T11:11:06;3.70;;;3.30;;
22382;SDS011;11359;45.802;13.530;2022-07-22T11:13:39;4.10;;;3.65;;
22382;SDS011;11359;45.802;13.530;2022-07-22T11:18:53;3.95;;;3.55;;
22382;SDS011;11359;45.802;13.530;2022-07-22T11:21:21;3.92;;;3.35;;
22382;SDS011;11359;45.802;13.530;2022-07-22T11:23:50;3.97;;;3.63;;
22382;SDS011;11359;45.802;13.530;2022-07-22T11:26:18;3.63;;;3.33;;
22382;SDS011;11359;45.802;13.530;2022-07-22T11:28:49;4.68;;;3.25;;
22382;SDS011;11359;45.802;13.530;2022-07-22T11:31:17;3.20;;;2.90;;
22382;SDS011;11359;45.802;13.530;2022-07-22T11:33:46;2.70;;;2.50;;
22382;SDS011;11359;45.802;13.530;2022-07-22T11:36:12;2.60;;;2.40;;
22382;SDS011;11359;45.802;13.530;2022-07-22T11:38:42;4.00;;;3.60;;
22382;SDS011;11359;45.802;13.530;2022-07-22T11:41:10;3.60;;;3.30;;
22382;SDS011;11359;45.802;13.530;2022-07-22T11:43:40;4.47;;;4.07;;
22382;SDS011;11359;45.802;13.530;2022-07-22T11:46:07;4.15;;;3.75;;
22382;SDS011;11359;45.802;13.530;2022-07-22T11:48:33;2.90;;;2.70;;
22382;SDS011;11359;45.802;13.530;2022-07-22T11:51:03;3.10;;;2.80;;
22382;SDS011;11359;45.802;13.530;2022-07-22T11:53:30;4.88;;;4.43;;
22382;SDS011;11359;45.802;13.530;2022-07-22T11:55:57;4.35;;;3.95;;
22382;SDS011;11359;45.802;13.530;2022-07-22T11:58:40;5.55;;;4.90;;
22382;SDS011;11359;45.802;13.530;2022-07-22T12:01:11;4.72;;;4.30;;
22382;SDS011;11359;45.802;13.530;2022-07-22T12:03:39;4.30;;;3.90;;
22382;SDS011;11359;45.802;13.530;2022-07-22T12:06:09;3.60;;;3.30;;
22382;SDS011;11359;45.802;13.530;2022-07-22T12:08:45;2.88;;;2.67;;
22382;SDS011;11359;45.802;13.530;2022-07-22T12:11:13;3.67;;;3.08;;
22382;SDS011;11359;45.802;13.530;2022-07-22T12:13:41;3.00;;;2.80;;
22382;SDS011;11359;45.802;13.530;2022-07-22T12:16:18;2.42;;;2.22;;
22382;SDS011;11359;45.802;13.530;2022-07-22T12:18:52;2.38;;;2.17;;
22382;SDS011;11359;45.802;13.530;2022-07-22T12:21:19;1.88;;;1.77;;
22382;SDS011;11359;45.802;13.530;2022-07-22T12:23:56;1.80;;;1.70;;
22382;SDS011;11359;45.802;13.530;2022-07-22T12:29:20;1.67;;;1.58;;
22382;SDS011;11359;45.802;13.530;2022-07-22T12:31:56;1.38;;;1.27;;
22382;SDS011;11359;45.802;13.530;2022-07-22T12:34:44;1.98;;;1.75;;
22382;SDS011;11359;45.802;13.530;2022-07-22T12:40:06;2.00;;;1.90;;
22382;SDS011;11359;45.802;13.530;2022-07-22T12:45:26;2.17;;;1.98;;
22382;SDS011;11359;45.802;13.530;2022-07-22T12:47:57;1.92;;;1.83;;
22382;SDS011;11359;45.802;13.530;2022-07-22T12:53:13;2.30;;;2.10;;
22382;SDS011;11359;45.802;13.530;2022-07-22T12:58:10;2.10;;;1.90;;
22382;SDS011;11359;45.802;13.530;2022-07-22T13:00:41;2.25;;;2.05;;
22382;SDS011;11359;45.802;13.530;2022-07-22T13:03:10;2.70;;;2.50;;
22382;SDS011;11359;45.802;13.530;2022-07-22T13:05:36;2.50;;;2.30;;
22382;SDS011;11359;45.802;13.530;2022-07-22T13:08:03;2.90;;;2.67;;
22382;SDS011;11359;45.802;13.530;2022-07-22T13:10:29;2.60;;;2.40;;
22382;SDS011;11359;45.802;13.530;2022-07-22T13:12:55;3.20;;;2.90;;
22382;SDS011;11359;45.802;13.530;2022-07-22T13:15:21;3.65;;;3.22;;
22382;SDS011;11359;45.802;13.530;2022-07-22T13:17:47;4.13;;;3.80;;
22382;SDS011;11359;45.802;13.530;2022-07-22T13:20:14;3.47;;;3.17;;
22382;SDS011;11359;45.802;13.530;2022-07-22T13:22:44;2.92;;;2.70;;
22382;SDS011;11359;45.802;13.530;2022-07-22T13:25:10;3.30;;;3.00;;
22382;SDS011;11359;45.802;13.530;2022-07-22T13:27:36;3.15;;;2.88;;
22382;SDS011;11359;45.802;13.530;2022-07-22T13:30:02;3.35;;;3.03;;
22382;SDS011;11359;45.802;13.530;2022-07-22T13:32:28;2.90;;;2.70;;
22382;SDS011;11359;45.802;13.530;2022-07-22T13:34:55;3.50;;;3.20;;
22382;SDS011;11359;45.802;13.530;2022-07-22T13:37:21;3.30;;;3.05;;
22382;SDS011;11359;45.802;13.530;2022-07-22T13:39:47;3.40;;;3.10;;
22382;SDS011;11359;45.802;13.530;2022-07-22T13:42:13;3.38;;;3.08;;
22382;SDS011;11359;45.802;13.530;2022-07-22T13:44:46;3.38;;;3.08;;
22382;SDS011;11359;45.802;13.530;2022-07-22T13:47:13;3.22;;;2.92;;
22382;SDS011;11359;45.802;13.530;2022-07-22T13:49:40;2.90;;;2.70;;
22382;SDS011;11359;45.802;13.530;2022-07-22T13:52:06;3.30;;;3.00;;
22382;SDS011;11359;45.802;13.530;2022-07-22T13:54:32;2.88;;;2.58;;
22382;SDS011;11359;45.802;13.530;2022-07-22T13:56:58;2.70;;;2.50;;
22382;SDS011;11359;45.802;13.530;2022-07-22T13:59:25;3.65;;;3.30;;
22382;SDS011;11359;45.802;13.530;2022-07-22T14:01:51;3.50;;;3.20;;
22382;SDS011;11359;45.802;13.530;2022-07-22T14:04:17;3.65;;;3.35;;
22382;SDS011;11359;45.802;13.530;2022-07-22T14:06:42;3.50;;;3.20;;
22382;SDS011;11359;45.802;13.530;2022-07-22T14:09:08;4.05;;;3.75;;
22382;SDS011;11359;45.802;13.530;2022-07-22T14:11:34;4.10;;;3.80;;
22382;SDS011;11359;45.802;13.530;2022-07-22T14:13:59;5.15;;;4.70;;
22382;SDS011;11359;45.802;13.530;2022-07-22T14:16:25;5.18;;;4.68;;
22382;SDS011;11359;45.802;13.530;2022-07-22T14:21:31;4.47;;;4.18;;
22382;SDS011;11359;45.802;13.530;2022-07-22T14:23:57;4.93;;;4.53;;
22382;SDS011;11359;45.802;13.530;2022-07-22T14:26:23;5.95;;;5.43;;
22382;SDS011;11359;45.802;13.530;2022-07-22T14:28:49;6.10;;;5.60;;
22382;SDS011;11359;45.802;13.530;2022-07-22T14:31:14;5.43;;;5.00;;
22382;SDS011;11359;45.802;13.530;2022-07-22T14:33:40;6.00;;;5.50;;
22382;SDS011;11359;45.802;13.530;2022-07-22T14:36:06;5.70;;;5.20;;
22382;SDS011;11359;45.802;13.530;2022-07-22T14:38:32;5.22;;;4.82;;
22382;SDS011;11359;45.802;13.530;2022-07-22T14:40:58;4.97;;;4.57;;
22382;SDS011;11359;45.802;13.530;2022-07-22T14:43:24;4.93;;;4.53;;
22382;SDS011;11359;45.802;13.530;2022-07-22T14:45:49;5.10;;;4.70;;
22382;SDS011;11359;45.802;13.530;2022-07-22T14:48:15;5.10;;;4.70;;
22382;SDS011;11359;45.802;13.530;2022-07-22T14:50:41;4.43;;;4.03;;
22382;SDS011;11359;45.802;13.530;2022-07-22T14:53:07;5.18;;;4.78;;
22382;SDS011;11359;45.802;13.530;2022-07-22T14:55:33;4.55;;;4.25;;
22382;SDS011;11359;45.802;13.530;2022-07-22T14:57:58;5.00;;;4.60;;
22382;SDS011;11359;45.802;13.530;2022-07-22T15:00:24;4.85;;;4.32;;
22382;SDS011;11359;45.802;13.530;2022-07-22T15:02:50;5.07;;;4.57;;
22382;SDS011;11359;45.802;13.530;2022-07-22T15:05:16;4.97;;;4.57;;
22382;SDS011;11359;45.802;13.530;2022-07-22T15:07:41;4.63;;;4.28;;